createdAt,value
2018-09-03T00:02:05.588Z,18.70
2018-09-03T00:04:33.919Z,18.70
2018-09-03T00:07:02.493Z,18.60
2018-09-03T00:09:36.129Z,18.60
2018-09-03T00:12:04.412Z,18.60
2018-09-03T00:14:32.856Z,18.70
2018-09-03T00:17:01.390Z,18.70
2018-09-03T00:19:29.683Z,18.70
2018-09-03T00:21:57.973Z,18.70
2018-09-03T00:24:26.250Z,18.60
2018-09-03T00:26:54.528Z,18.60
2018-09-03T00:29:22.795Z,18.60
2018-09-03T00:31:56.422Z,18.60
2018-09-03T00:34:30.150Z,18.60
2018-09-03T00:37:03.766Z,18.60
2018-09-03T00:39:37.458Z,18.60
2018-09-03T00:42:11.239Z,18.60
2018-09-03T00:44:44.990Z,18.70
2018-09-03T00:47:13.353Z,18.70
2018-09-03T00:49:41.685Z,18.70
2018-09-03T00:52:09.956Z,18.80
2018-09-03T00:54:39.452Z,18.80
2018-09-03T00:57:07.848Z,18.80
2018-09-03T00:59:36.130Z,18.90
2018-09-03T01:02:04.408Z,18.80
2018-09-03T01:04:32.946Z,18.80
2018-09-03T01:07:01.305Z,18.80
2018-09-03T01:09:29.577Z,18.80
2018-09-03T01:11:57.886Z,18.80
2018-09-03T01:14:26.153Z,18.90
2018-09-03T01:16:54.433Z,18.80
2018-09-03T01:19:22.727Z,18.80
2018-09-03T01:21:51.085Z,18.80
2018-09-03T01:24:19.405Z,18.80
2018-09-03T01:26:47.676Z,18.70
2018-09-03T01:29:15.962Z,18.70
2018-09-03T01:31:44.237Z,18.70
2018-09-03T01:34:12.550Z,18.70
2018-09-03T01:36:40.827Z,18.70
2018-09-03T01:39:09.396Z,18.70
2018-09-03T01:41:37.672Z,18.60
2018-09-03T01:44:06.067Z,18.60
2018-09-03T01:46:34.413Z,18.60
2018-09-03T01:49:02.688Z,18.60
2018-09-03T01:51:30.976Z,18.60
2018-09-03T01:53:59.320Z,18.60
2018-09-03T01:56:27.635Z,18.60
2018-09-03T01:58:55.904Z,18.60
2018-09-03T02:01:24.236Z,18.70
2018-09-03T02:03:52.568Z,18.60
2018-09-03T02:06:20.952Z,18.60
2018-09-03T02:08:49.244Z,18.60
2018-09-03T02:11:17.525Z,18.50
2018-09-03T02:13:45.817Z,18.40
2018-09-03T02:16:14.082Z,18.30
2018-09-03T02:18:42.402Z,18.20
2018-09-03T02:21:10.694Z,18.10
2018-09-03T02:23:39.250Z,18.10
2018-09-03T02:26:07.586Z,18.00
2018-09-03T02:28:35.861Z,18.00
2018-09-03T02:31:04.450Z,18.10
2018-09-03T02:33:32.772Z,18.10
2018-09-03T02:36:01.090Z,18.10
2018-09-03T02:38:29.381Z,18.20
2018-09-03T02:40:57.758Z,18.20
2018-09-03T02:43:26.032Z,18.30
2018-09-03T02:45:54.312Z,18.30
2018-09-03T02:48:22.589Z,18.30
2018-09-03T02:50:50.838Z,18.30
2018-09-03T02:53:19.827Z,18.40
2018-09-03T02:55:48.126Z,18.40
2018-09-03T02:58:16.406Z,18.40
2018-09-03T03:00:44.653Z,18.40
2018-09-03T03:03:12.960Z,18.40
2018-09-03T03:05:41.208Z,18.40
2018-09-03T03:08:09.492Z,18.40
2018-09-03T03:10:37.782Z,18.40
2018-09-03T03:13:06.248Z,18.30
2018-09-03T03:15:34.615Z,18.30
2018-09-03T03:18:02.867Z,18.30
2018-09-03T03:20:31.131Z,18.20
2018-09-03T03:22:59.404Z,18.20
2018-09-03T03:25:27.701Z,18.20
2018-09-03T03:27:56.153Z,18.20
2018-09-03T03:30:24.467Z,18.30
2018-09-03T03:32:52.765Z,18.40
2018-09-03T03:35:21.057Z,18.40
2018-09-03T03:37:49.722Z,18.40
2018-09-03T03:40:19.010Z,18.40
2018-09-03T03:42:47.315Z,18.40
2018-09-03T03:45:15.803Z,18.40
2018-09-03T03:47:44.077Z,18.40
2018-09-03T03:50:12.361Z,18.40
2018-09-03T03:52:40.637Z,18.30
2018-09-03T03:55:08.980Z,18.30
2018-09-03T03:57:37.568Z,18.20
2018-09-03T04:00:06.327Z,18.20
2018-09-03T04:02:34.691Z,18.20
2018-09-03T04:05:02.966Z,18.20
2018-09-03T04:07:31.258Z,18.20
2018-09-03T04:09:59.594Z,18.30
2018-09-03T04:12:27.841Z,18.30
2018-09-03T04:14:56.181Z,18.30
2018-09-03T04:17:24.462Z,18.30
2018-09-03T04:20:03.071Z,18.40
2018-09-03T04:22:32.138Z,18.40
2018-09-03T04:25:00.585Z,18.40
2018-09-03T04:27:28.875Z,18.40
2018-09-03T04:29:57.186Z,18.40
2018-09-03T04:32:25.544Z,18.50
2018-09-03T04:34:53.841Z,18.40
2018-09-03T04:37:22.104Z,18.40
2018-09-03T04:39:50.396Z,18.40
2018-09-03T04:42:18.692Z,18.40
2018-09-03T04:44:47.031Z,18.40
2018-09-03T04:47:15.309Z,18.50
2018-09-03T04:49:43.846Z,18.50
2018-09-03T04:52:12.124Z,18.50
2018-09-03T04:54:40.462Z,18.60
2018-09-03T04:57:08.769Z,18.80
2018-09-03T04:59:37.085Z,18.90
2018-09-03T05:02:05.679Z,19.00
2018-09-03T05:04:34.033Z,19.10
2018-09-03T05:07:02.331Z,19.20
2018-09-03T05:09:30.648Z,19.20
2018-09-03T05:11:59.058Z,19.20
2018-09-03T05:14:27.390Z,19.30
2018-09-03T05:16:55.693Z,19.30
2018-09-03T05:19:23.997Z,19.40
2018-09-03T05:21:52.593Z,19.40
2018-09-03T05:24:21.047Z,19.50
2018-09-03T05:26:49.393Z,19.50
2018-09-03T05:29:17.829Z,19.60
2018-09-03T05:31:46.159Z,19.60
2018-09-03T05:34:14.443Z,19.50
2018-09-03T05:36:42.759Z,19.40
2018-09-03T05:39:12.574Z,19.50
2018-09-03T05:41:40.900Z,19.50
2018-09-03T05:44:09.945Z,19.60
2018-09-03T05:46:38.868Z,19.60
2018-09-03T05:49:07.140Z,19.50
2018-09-03T05:51:35.444Z,19.30
2018-09-03T05:54:03.752Z,19.20
2018-09-03T05:56:32.063Z,19.20
2018-09-03T05:59:00.439Z,19.20
2018-09-03T06:01:28.758Z,19.20
2018-09-03T06:03:57.057Z,19.30
2018-09-03T06:06:25.414Z,19.30
2018-09-03T06:08:53.712Z,19.30
2018-09-03T06:11:22.006Z,19.30
2018-09-03T06:13:50.300Z,19.20
2018-09-03T06:16:18.644Z,19.00
2018-09-03T06:18:46.957Z,19.00
2018-09-03T06:21:15.268Z,19.00
2018-09-03T06:23:43.561Z,19.00
2018-09-03T06:26:11.949Z,19.10
2018-09-03T06:28:40.243Z,19.10
2018-09-03T06:31:08.572Z,19.00
2018-09-03T06:33:36.841Z,19.10
2018-09-03T06:36:05.157Z,19.00
2018-09-03T06:38:33.436Z,19.20
2018-09-03T06:41:01.713Z,19.30
2018-09-03T06:43:30.045Z,19.40
2018-09-03T06:45:58.409Z,19.40
2018-09-03T06:48:26.714Z,19.50
2018-09-03T06:50:55.007Z,19.60
2018-09-03T06:53:23.571Z,19.60
2018-09-03T06:55:51.895Z,19.60
2018-09-03T06:58:20.257Z,19.70
2018-09-03T07:00:48.525Z,19.60
2018-09-03T07:03:16.800Z,19.60
2018-09-03T07:05:45.512Z,19.70
2018-09-03T07:08:14.807Z,19.90
2018-09-03T07:10:43.072Z,19.90
2018-09-03T07:13:11.363Z,20.00
2018-09-03T07:15:39.624Z,20.20
2018-09-03T07:18:07.914Z,20.40
2018-09-03T07:20:36.354Z,20.50
2018-09-03T07:23:04.681Z,20.70
2018-09-03T07:25:33.136Z,20.90
2018-09-03T07:28:01.412Z,20.90
2018-09-03T07:30:29.704Z,20.90
2018-09-03T07:32:58.000Z,20.80
2018-09-03T07:35:26.339Z,20.70
2018-09-03T07:37:54.576Z,20.70
2018-09-03T07:40:22.871Z,20.60
2018-09-03T07:42:51.363Z,20.50
2018-09-03T07:45:19.746Z,20.50
2018-09-03T07:47:48.020Z,20.40
2018-09-03T07:50:16.304Z,20.30
2018-09-03T07:52:44.676Z,20.40
2018-09-03T07:55:12.977Z,20.30
2018-09-03T07:57:41.246Z,20.30
2018-09-03T08:00:09.719Z,20.30
2018-09-03T08:02:38.104Z,20.30
2018-09-03T08:05:07.084Z,20.30
2018-09-03T08:07:35.375Z,20.30
2018-09-03T08:10:03.704Z,20.10
2018-09-03T08:12:32.021Z,19.90
2018-09-03T08:15:00.289Z,19.90
2018-09-03T08:17:28.589Z,19.80
2018-09-03T08:19:56.955Z,19.80
2018-09-03T08:22:25.183Z,20.00
2018-09-03T08:24:53.459Z,20.10
2018-09-03T08:27:21.850Z,20.10
2018-09-03T08:29:50.150Z,20.10
2018-09-03T08:32:18.425Z,20.20
2018-09-03T08:34:46.726Z,20.10
2018-09-03T08:37:15.056Z,20.00
2018-09-03T08:39:43.428Z,19.90
2018-09-03T08:42:11.720Z,20.00
2018-09-03T08:44:40.379Z,20.00
2018-09-03T08:47:08.702Z,20.10
2018-09-03T08:49:36.983Z,20.00
2018-09-03T08:52:05.352Z,19.90
2018-09-03T08:54:33.699Z,19.80
2018-09-03T08:57:01.977Z,19.70
2018-09-03T08:59:30.249Z,19.70
2018-09-03T09:01:58.566Z,19.80
2018-09-03T09:04:26.888Z,19.80
2018-09-03T09:06:55.164Z,19.70
2018-09-03T09:09:23.508Z,19.60
2018-09-03T09:11:51.795Z,19.60
2018-09-03T09:14:20.162Z,19.60
2018-09-03T09:16:48.484Z,19.60
2018-09-03T09:19:16.872Z,19.60
2018-09-03T09:21:45.138Z,19.70
2018-09-03T09:24:13.402Z,19.70
2018-09-03T09:26:41.719Z,19.80
2018-09-03T09:29:09.976Z,19.90
2018-09-03T09:31:38.280Z,20.00
2018-09-03T09:34:06.561Z,20.20
2018-09-03T09:36:34.848Z,20.40
2018-09-03T09:39:03.712Z,20.60
2018-09-03T09:41:33.858Z,20.80
2018-09-03T09:44:02.946Z,20.90
2018-09-03T09:46:31.303Z,20.90
2018-09-03T09:48:59.585Z,20.60
2018-09-03T09:51:28.075Z,20.50
2018-09-03T09:53:56.572Z,20.40
2018-09-03T09:56:24.862Z,20.40
2018-09-03T09:58:53.170Z,20.40
2018-09-03T10:01:26.798Z,20.50
2018-09-03T10:03:55.074Z,20.60
2018-09-03T10:06:23.354Z,20.70
2018-09-03T10:08:51.721Z,20.90
2018-09-03T10:11:20.018Z,21.00
2018-09-03T10:13:48.306Z,20.90
2018-09-03T10:16:16.638Z,20.90
2018-09-03T10:18:44.960Z,20.80
2018-09-03T10:21:13.280Z,20.70
2018-09-03T10:23:41.646Z,20.90
2018-09-03T10:26:09.985Z,21.10
2018-09-03T10:28:38.257Z,21.50
2018-09-03T10:31:06.671Z,21.60
2018-09-03T10:33:34.928Z,22.00
2018-09-03T10:36:03.249Z,22.50
2018-09-03T10:38:31.556Z,23.30
2018-09-03T10:40:59.852Z,24.00
2018-09-03T10:43:28.197Z,24.10
2018-09-03T10:45:56.460Z,24.00
2018-09-03T10:48:24.778Z,24.00
2018-09-03T10:50:53.093Z,23.70
2018-09-03T10:53:21.398Z,23.70
2018-09-03T10:55:49.684Z,23.50
2018-09-03T10:58:17.978Z,23.50
2018-09-03T11:00:46.312Z,23.40
2018-09-03T11:03:14.589Z,23.60
2018-09-03T11:05:43.089Z,23.80
2018-09-03T11:08:11.502Z,23.70
2018-09-03T11:10:39.804Z,23.50
2018-09-03T11:13:08.127Z,23.30
2018-09-03T11:15:36.413Z,23.30
2018-09-03T11:18:04.706Z,23.20
2018-09-03T11:20:33.002Z,23.10
2018-09-03T11:23:01.296Z,23.20
2018-09-03T11:25:30.968Z,23.20
2018-09-03T11:27:59.692Z,23.20
2018-09-03T11:30:28.368Z,22.90
2018-09-03T11:32:57.936Z,22.90
2018-09-03T11:35:26.414Z,23.10
2018-09-03T11:37:54.734Z,23.20
2018-09-03T11:40:23.885Z,23.20
2018-09-03T11:42:52.158Z,23.30
2018-09-03T11:45:21.568Z,23.30
2018-09-03T11:47:50.160Z,23.20
2018-09-03T11:50:19.471Z,23.10
2018-09-03T11:52:47.752Z,23.00
2018-09-03T11:55:16.547Z,22.70
2018-09-03T11:57:44.898Z,22.80
2018-09-03T12:00:29.219Z,22.90
2018-09-03T12:02:57.914Z,23.00
2018-09-03T12:05:26.522Z,23.20
2018-09-03T12:07:54.844Z,23.20
2018-09-03T12:10:23.363Z,23.20
2018-09-03T12:12:51.658Z,23.30
2018-09-03T12:15:25.120Z,23.40
2018-09-03T12:17:53.432Z,23.40
2018-09-03T12:20:21.760Z,23.50
2018-09-03T12:22:50.036Z,23.50
2018-09-03T12:25:18.366Z,23.40
2018-09-03T12:27:46.727Z,23.20
2018-09-03T12:30:14.958Z,23.20
2018-09-03T12:32:43.390Z,23.30
2018-09-03T12:35:12.090Z,23.20
2018-09-03T12:37:40.359Z,23.00
2018-09-03T12:40:08.632Z,23.00
2018-09-03T12:42:36.908Z,23.00
2018-09-03T12:45:05.420Z,23.10
2018-09-03T12:47:33.695Z,23.10
2018-09-03T12:50:02.057Z,23.20
2018-09-03T12:52:30.342Z,23.00
2018-09-03T12:54:58.732Z,23.00
2018-09-03T12:57:27.004Z,22.90
2018-09-03T13:00:05.135Z,22.90
2018-09-03T13:02:23.554Z,23.00
2018-09-03T13:04:51.848Z,23.00
2018-09-03T13:07:20.206Z,23.00
2018-09-03T13:09:48.486Z,22.80
2018-09-03T13:12:16.951Z,22.70
2018-09-03T13:14:45.225Z,22.70
2018-09-03T13:17:13.518Z,22.60
2018-09-03T13:19:41.819Z,22.70
2018-09-03T13:22:10.137Z,22.80
2018-09-03T13:24:38.478Z,22.80
2018-09-03T13:27:06.870Z,22.90
2018-09-03T13:29:37.403Z,23.00
2018-09-03T13:32:05.937Z,23.10
2018-09-03T13:34:34.257Z,23.10
2018-09-03T13:37:02.559Z,23.10
2018-09-03T13:39:30.868Z,23.20
2018-09-03T13:42:01.863Z,23.20
2018-09-03T13:44:30.085Z,23.20
2018-09-03T13:46:58.370Z,23.10
2018-09-03T13:49:26.665Z,23.20
2018-09-03T13:51:54.939Z,23.20
2018-09-03T13:54:23.341Z,23.20
2018-09-03T13:56:51.669Z,23.10
2018-09-03T13:59:19.963Z,23.20
2018-09-03T14:01:48.273Z,23.20
2018-09-03T14:04:16.580Z,23.10
2018-09-03T14:06:44.904Z,23.10
2018-09-03T14:09:13.309Z,23.10
2018-09-03T14:11:41.695Z,23.20
2018-09-03T14:14:09.910Z,23.30
2018-09-03T14:16:38.226Z,23.30
2018-09-03T14:19:06.628Z,23.30
2018-09-03T14:21:34.982Z,23.30
2018-09-03T14:24:03.311Z,23.40
2018-09-03T14:26:31.749Z,23.50
2018-09-03T14:29:00.039Z,23.60
2018-09-03T14:31:28.314Z,23.60
2018-09-03T14:33:56.584Z,23.60
2018-09-03T14:36:26.344Z,23.60
2018-09-03T14:38:54.702Z,23.40
2018-09-03T14:41:23.546Z,23.30
2018-09-03T14:43:52.007Z,23.30
2018-09-03T14:46:20.324Z,23.30
2018-09-03T14:48:48.588Z,23.30
2018-09-03T14:51:16.864Z,23.30
2018-09-03T14:53:45.258Z,23.40
2018-09-03T14:56:13.645Z,23.40
2018-09-03T14:58:41.869Z,23.50
2018-09-03T15:01:10.153Z,23.60
2018-09-03T15:03:38.510Z,23.50
2018-09-03T15:06:07.827Z,23.50
2018-09-03T15:08:36.120Z,23.50
2018-09-03T15:11:04.472Z,23.60
2018-09-03T15:13:34.699Z,23.60
2018-09-03T15:16:03.016Z,23.60
2018-09-03T15:18:31.289Z,23.70
2018-09-03T15:20:59.577Z,23.70
2018-09-03T15:23:27.885Z,23.50
2018-09-03T15:25:56.165Z,23.50
2018-09-03T15:28:25.272Z,23.40
2018-09-03T15:30:53.579Z,23.30
2018-09-03T15:33:23.019Z,23.10
2018-09-03T15:35:52.307Z,23.00
2018-09-03T15:38:22.264Z,23.00
2018-09-03T15:40:51.416Z,23.00
2018-09-03T15:43:19.739Z,23.00
2018-09-03T15:45:48.628Z,22.90
2018-09-03T15:48:17.015Z,22.80
2018-09-03T15:50:45.352Z,22.60
2018-09-03T15:53:13.710Z,22.40
2018-09-03T15:55:46.937Z,22.40
2018-09-03T15:58:17.576Z,22.40
2018-09-03T16:00:45.922Z,22.40
2018-09-03T16:03:15.491Z,22.50
2018-09-03T16:05:43.794Z,22.60
2018-09-03T16:08:13.509Z,22.60
2018-09-03T16:10:41.909Z,22.50
2018-09-03T16:13:10.604Z,22.50
2018-09-03T16:15:40.051Z,22.40
2018-09-03T16:18:08.705Z,22.30
2018-09-03T16:20:37.157Z,22.20
2018-09-03T16:23:05.923Z,22.10
2018-09-03T16:25:34.206Z,22.10
2018-09-03T16:28:03.788Z,22.10
2018-09-03T16:30:32.281Z,22.10
2018-09-03T16:33:00.583Z,22.10
2018-09-03T16:35:28.901Z,22.10
2018-09-03T16:37:57.256Z,22.10
2018-09-03T16:40:27.848Z,22.10
2018-09-03T16:42:56.250Z,22.10
2018-09-03T16:45:24.628Z,22.00
2018-09-03T16:47:52.957Z,21.90
2018-09-03T16:50:21.660Z,22.00
2018-09-03T16:52:50.006Z,22.00
2018-09-03T16:55:21.007Z,22.10
2018-09-03T16:57:49.283Z,22.10
2018-09-03T17:00:18.109Z,22.20
2018-09-03T17:02:46.459Z,22.20
2018-09-03T17:05:14.991Z,22.30
2018-09-03T17:07:43.470Z,22.20
2018-09-03T17:10:11.744Z,22.10
2018-09-03T17:12:40.114Z,22.10
2018-09-03T17:15:08.402Z,22.10
2018-09-03T17:17:36.825Z,21.90
2018-09-03T17:20:05.216Z,21.90
2018-09-03T17:22:33.556Z,21.90
2018-09-03T17:25:01.946Z,21.80
2018-09-03T17:27:30.279Z,21.70
2018-09-03T17:29:58.640Z,21.60
2018-09-03T17:32:27.004Z,21.60
2018-09-03T17:34:55.388Z,21.60
2018-09-03T17:37:23.764Z,21.50
2018-09-03T17:39:52.210Z,21.50
2018-09-03T17:42:21.376Z,21.50
2018-09-03T17:44:51.910Z,21.40
2018-09-03T17:47:20.190Z,21.40
2018-09-03T17:49:51.423Z,21.40
2018-09-03T17:52:19.796Z,21.40
2018-09-03T17:54:48.138Z,21.40
2018-09-03T17:57:17.260Z,21.40
2018-09-03T17:59:45.637Z,21.30
2018-09-03T18:02:14.082Z,21.30
2018-09-03T18:04:42.478Z,21.30
2018-09-03T18:07:15.501Z,21.30
2018-09-03T18:09:43.954Z,21.30
2018-09-03T18:12:12.691Z,21.30
2018-09-03T18:14:41.070Z,21.20
2018-09-03T18:17:09.380Z,21.30
2018-09-03T18:19:38.371Z,21.30
2018-09-03T18:22:06.650Z,21.20
2018-09-03T18:24:35.148Z,21.20
2018-09-03T18:27:03.556Z,21.20
2018-09-03T18:29:31.900Z,21.20
2018-09-03T18:32:00.190Z,21.20
2018-09-03T18:34:28.512Z,21.20
2018-09-03T18:36:56.975Z,21.20
2018-09-03T18:39:25.718Z,21.20
2018-09-03T18:41:54.073Z,21.20
2018-09-03T18:44:22.363Z,21.20
2018-09-03T18:46:54.548Z,21.20
2018-09-03T18:49:22.836Z,21.20
2018-09-03T18:51:51.108Z,21.10
2018-09-03T18:54:19.422Z,21.10
2018-09-03T18:56:47.716Z,21.20
2018-09-03T18:59:16.039Z,21.10
2018-09-03T19:01:44.342Z,21.10
2018-09-03T19:04:12.726Z,21.10
2018-09-03T19:06:41.001Z,21.10
2018-09-03T19:09:10.069Z,21.10
2018-09-03T19:11:38.630Z,21.10
2018-09-03T19:14:06.964Z,21.10
2018-09-03T19:16:35.248Z,21.10
2018-09-03T19:19:03.587Z,21.10
2018-09-03T19:21:32.082Z,21.20
2018-09-03T19:24:01.760Z,21.20
2018-09-03T19:26:30.064Z,21.10
2018-09-03T19:28:58.402Z,21.10
2018-09-03T19:31:26.705Z,21.10
2018-09-03T19:33:55.088Z,21.00
2018-09-03T19:36:23.376Z,21.00
2018-09-03T19:38:51.699Z,21.00
2018-09-03T19:41:20.010Z,21.00
2018-09-03T19:43:49.022Z,21.00
2018-09-03T19:46:17.449Z,21.00
2018-09-03T19:48:46.048Z,21.10
2018-09-03T19:51:16.634Z,21.10
2018-09-03T19:53:45.068Z,21.20
2018-09-03T19:56:13.410Z,21.20
2018-09-03T19:58:41.720Z,21.20
2018-09-03T20:01:10.044Z,21.10
2018-09-03T20:03:38.342Z,21.00
2018-09-03T20:06:06.710Z,21.00
2018-09-03T20:08:34.977Z,20.90
2018-09-03T20:11:03.300Z,20.80
2018-09-03T20:13:32.041Z,20.80
2018-09-03T20:16:00.394Z,20.70
2018-09-03T20:18:28.719Z,20.70
2018-09-03T20:20:57.108Z,20.60
2018-09-03T20:23:25.534Z,20.60
2018-09-03T20:25:54.053Z,20.50
2018-09-03T20:28:22.448Z,20.40
2018-09-03T20:30:50.665Z,20.40
2018-09-03T20:33:18.981Z,20.40
2018-09-03T20:35:47.581Z,20.40
2018-09-03T20:38:15.887Z,20.30
2018-09-03T20:40:44.192Z,20.30
2018-09-03T20:43:12.449Z,20.20
2018-09-03T20:45:40.779Z,20.20
2018-09-03T20:48:09.090Z,20.10
2018-09-03T20:50:37.378Z,20.10
2018-09-03T20:53:05.662Z,20.10
2018-09-03T20:55:33.998Z,20.10
2018-09-03T20:58:02.402Z,20.10
2018-09-03T21:00:30.721Z,20.10
2018-09-03T21:02:59.027Z,20.10
2018-09-03T21:05:27.348Z,20.10
2018-09-03T21:07:55.671Z,20.10
2018-09-03T21:10:23.958Z,20.00
2018-09-03T21:12:52.265Z,20.00
2018-09-03T21:15:20.567Z,19.90
2018-09-03T21:17:48.858Z,19.80
2018-09-03T21:20:17.171Z,19.80
2018-09-03T21:22:45.474Z,19.80
2018-09-03T21:25:13.767Z,19.60
2018-09-03T21:27:42.032Z,19.60
2018-09-03T21:30:10.362Z,19.50
2018-09-03T21:32:38.668Z,19.50
2018-09-03T21:35:07.260Z,19.50
2018-09-03T21:37:36.158Z,19.40
2018-09-03T21:40:04.962Z,19.40
2018-09-03T21:42:33.258Z,19.30
2018-09-03T21:45:01.556Z,19.20
2018-09-03T21:47:29.832Z,19.20
2018-09-03T21:49:58.123Z,19.10
2018-09-03T21:52:26.452Z,19.10
2018-09-03T21:54:54.727Z,19.00
2018-09-03T21:57:23.013Z,19.10
2018-09-03T21:59:51.302Z,19.10
2018-09-03T22:02:19.593Z,19.10
2018-09-03T22:04:47.909Z,19.00
2018-09-03T22:07:16.246Z,19.00
2018-09-03T22:09:44.564Z,19.00
2018-09-03T22:12:12.889Z,19.10
2018-09-03T22:14:41.289Z,19.00
2018-09-03T22:17:09.909Z,19.10
2018-09-03T22:19:38.206Z,19.10
2018-09-03T22:22:06.519Z,19.10
2018-09-03T22:24:34.829Z,19.10
2018-09-03T22:27:03.116Z,19.10
2018-09-03T22:29:31.488Z,19.10
2018-09-03T22:31:59.779Z,19.10
2018-09-03T22:34:28.131Z,19.10
2018-09-03T22:36:56.619Z,19.10
2018-09-03T22:39:26.303Z,19.10
2018-09-03T22:41:54.785Z,19.10
2018-09-03T22:44:25.085Z,19.20
2018-09-03T22:46:53.773Z,19.10
2018-09-03T22:49:22.071Z,19.20
2018-09-03T22:51:50.405Z,19.20
2018-09-03T22:54:18.719Z,19.20
2018-09-03T22:56:46.991Z,19.20
2018-09-03T22:59:15.301Z,19.20
2018-09-03T23:01:43.636Z,19.10
2018-09-03T23:04:11.900Z,19.00
2018-09-03T23:06:40.172Z,19.00
2018-09-03T23:09:08.465Z,19.00
2018-09-03T23:11:36.794Z,19.00
2018-09-03T23:14:06.072Z,19.00
2018-09-03T23:16:34.553Z,19.00
2018-09-03T23:19:02.830Z,18.90
2018-09-03T23:21:31.326Z,18.90
2018-09-03T23:23:59.627Z,19.00
2018-09-03T23:26:28.181Z,19.00
2018-09-03T23:28:56.564Z,19.00
2018-09-03T23:31:24.921Z,19.00
2018-09-03T23:33:53.313Z,18.90
2018-09-03T23:36:21.617Z,18.90
2018-09-03T23:38:49.921Z,18.80
2018-09-03T23:41:18.173Z,18.90
2018-09-03T23:43:46.577Z,18.80
2018-09-03T23:46:14.849Z,18.70
2018-09-03T23:48:43.149Z,18.70
2018-09-03T23:51:11.530Z,18.70
2018-09-03T23:53:39.934Z,18.60
2018-09-03T23:56:08.253Z,18.60
2018-09-03T23:58:36.588Z,18.60
